createdAt,value
2018-02-24T00:00:16.747Z,-2.12
2018-02-24T00:02:45.153Z,-1.99
2018-02-24T00:05:14.532Z,-2.10
2018-02-24T00:07:42.915Z,-2.31
2018-02-24T00:10:11.383Z,-2.25
2018-02-24T00:12:40.714Z,-2.25
2018-02-24T00:15:09.129Z,-2.18
2018-02-24T00:17:37.527Z,-2.23
2018-02-24T00:20:06.797Z,-2.19
2018-02-24T00:22:44.685Z,-2.26
2018-02-24T00:25:13.101Z,-2.31
2018-02-24T00:27:41.481Z,-2.30
2018-02-24T00:30:09.918Z,-2.26
2018-02-24T00:32:38.336Z,-2.41
2018-02-24T00:35:06.834Z,-2.49
2018-02-24T00:37:35.264Z,-2.48
2018-02-24T00:40:03.655Z,-2.55
2018-02-24T00:42:32.831Z,-2.57
2018-02-24T00:45:01.219Z,-2.56
2018-02-24T00:47:30.399Z,-2.49
2018-02-24T00:49:58.791Z,-2.56
2018-02-24T00:52:27.975Z,-2.55
2018-02-24T00:54:56.346Z,-2.40
2018-02-24T00:57:25.585Z,-2.54
2018-02-24T00:59:54.835Z,-2.58
2018-02-24T01:02:23.218Z,-2.61
2018-02-24T01:04:51.606Z,-2.63
2018-02-24T01:07:20.020Z,-2.64
2018-02-24T01:09:49.176Z,-2.81
2018-02-24T01:12:17.581Z,-2.91
2018-02-24T01:14:46.005Z,-3.04
2018-02-24T01:17:14.405Z,-2.93
2018-02-24T01:19:42.974Z,-2.99
2018-02-24T01:22:11.400Z,-3.09
2018-02-24T01:24:39.949Z,-2.93
2018-02-24T01:27:08.339Z,-2.93
2018-02-24T01:29:36.734Z,-2.84
2018-02-24T01:32:05.135Z,-2.81
2018-02-24T01:34:33.535Z,-2.96
2018-02-24T01:37:02.715Z,-3.20
2018-02-24T01:39:31.095Z,-3.30
2018-02-24T01:41:59.498Z,-3.26
2018-02-24T01:44:28.651Z,-3.45
2018-02-24T01:46:57.102Z,-3.68
2018-02-24T01:49:25.740Z,-3.99
2018-02-24T01:51:54.159Z,-4.01
2018-02-24T01:54:22.575Z,-3.99
2018-02-24T01:56:51.047Z,-4.04
2018-02-24T01:59:19.470Z,-4.15
2018-02-24T02:01:48.661Z,-4.16
2018-02-24T02:04:18.119Z,-4.34
2018-02-24T02:06:46.520Z,-4.24
2018-02-24T02:09:14.914Z,-4.24
2018-02-24T02:11:43.462Z,-4.28
2018-02-24T02:14:11.926Z,-4.40
2018-02-24T02:16:40.332Z,-4.53
2018-02-24T02:19:08.720Z,-4.61
2018-02-24T02:21:37.158Z,-4.72
2018-02-24T02:24:06.358Z,-4.78
2018-02-24T02:26:34.740Z,-4.83
2018-02-24T02:29:03.913Z,-4.96
2018-02-24T02:31:32.295Z,-4.88
2018-02-24T02:34:01.694Z,-4.96
2018-02-24T02:36:30.052Z,-5.02
2018-02-24T02:38:58.512Z,-5.18
2018-02-24T02:41:27.030Z,-5.19
2018-02-24T02:43:56.205Z,-5.31
2018-02-24T02:46:24.596Z,-5.43
2018-02-24T02:48:53.013Z,-5.70
2018-02-24T02:51:22.177Z,-5.68
2018-02-24T02:53:50.568Z,-5.73
2018-02-24T02:56:18.958Z,-5.76
2018-02-24T02:58:47.335Z,-5.84
2018-02-24T03:01:15.759Z,-5.93
2018-02-24T03:03:44.140Z,-5.89
2018-02-24T03:06:12.560Z,-6.01
2018-02-24T03:08:40.982Z,-6.09
2018-02-24T03:11:09.399Z,-6.20
2018-02-24T03:13:37.783Z,-6.12
2018-02-24T03:16:06.175Z,-6.01
2018-02-24T03:18:34.561Z,-6.21
2018-02-24T03:21:03.009Z,-6.20
2018-02-24T03:23:31.395Z,-6.20
2018-02-24T03:25:59.823Z,-6.31
2018-02-24T03:28:28.984Z,-6.31
2018-02-24T03:30:58.290Z,-6.28
2018-02-24T03:33:26.674Z,-6.14
2018-02-24T03:35:55.065Z,-6.26
2018-02-24T03:38:23.463Z,-6.29
2018-02-24T03:40:51.994Z,-6.33
2018-02-24T03:43:20.488Z,-6.43
2018-02-24T03:45:54.299Z,-6.56
2018-02-24T03:48:22.860Z,-6.48
2018-02-24T03:50:51.237Z,-6.42
2018-02-24T03:53:19.631Z,-6.36
2018-02-24T03:55:48.006Z,-6.36
2018-02-24T03:58:16.415Z,-6.24
2018-02-24T04:00:44.847Z,-6.44
2018-02-24T04:03:13.292Z,-6.51
2018-02-24T04:05:42.461Z,-6.55
2018-02-24T04:08:10.951Z,-6.66
2018-02-24T04:10:39.323Z,-6.60
2018-02-24T04:13:07.728Z,-6.60
2018-02-24T04:15:36.110Z,-6.55
2018-02-24T04:18:04.515Z,-6.67
2018-02-24T04:20:33.681Z,-6.42
2018-02-24T04:23:02.048Z,-6.36
2018-02-24T04:25:31.268Z,-6.38
2018-02-24T04:27:59.872Z,-6.43
2018-02-24T04:30:28.289Z,-6.57
2018-02-24T04:32:56.698Z,-6.61
2018-02-24T04:35:25.178Z,-6.59
2018-02-24T04:37:53.619Z,-6.57
2018-02-24T04:40:22.795Z,-6.49
2018-02-24T04:42:52.240Z,-6.64
2018-02-24T04:45:20.614Z,-6.71
2018-02-24T04:47:49.318Z,-6.78
2018-02-24T04:50:17.851Z,-6.64
2018-02-24T04:52:46.231Z,-6.83
2018-02-24T04:55:15.402Z,-6.80
2018-02-24T04:57:43.807Z,-6.81
2018-02-24T05:00:12.993Z,-6.86
2018-02-24T05:02:41.404Z,-7.00
2018-02-24T05:05:10.600Z,-6.76
2018-02-24T05:07:38.974Z,-6.87
2018-02-24T05:10:08.151Z,-6.99
2018-02-24T05:12:36.542Z,-6.79
2018-02-24T05:15:04.932Z,-7.01
2018-02-24T05:17:33.383Z,-6.92
2018-02-24T05:20:01.896Z,-6.91
2018-02-24T05:22:30.279Z,-6.90
2018-02-24T05:24:59.451Z,-6.62
2018-02-24T05:27:27.845Z,-6.79
2018-02-24T05:29:56.279Z,-6.93
2018-02-24T05:32:24.657Z,-7.00
2018-02-24T05:34:53.062Z,-6.82
2018-02-24T05:37:21.507Z,-6.75
2018-02-24T05:39:49.922Z,-6.96
2018-02-24T05:42:18.303Z,-6.99
2018-02-24T05:44:46.708Z,-6.90
2018-02-24T05:47:15.126Z,-7.01
2018-02-24T05:49:44.565Z,-6.99
2018-02-24T05:52:12.966Z,-6.98
2018-02-24T05:54:41.365Z,-7.07
2018-02-24T05:57:10.512Z,-7.12
2018-02-24T05:59:38.930Z,-7.17
2018-02-24T06:02:07.479Z,-7.17
2018-02-24T06:04:35.893Z,-7.01
2018-02-24T06:07:04.332Z,-7.14
2018-02-24T06:09:32.712Z,-7.22
2018-02-24T06:12:01.279Z,-7.21
2018-02-24T06:14:30.481Z,-7.27
2018-02-24T06:16:59.653Z,-7.27
2018-02-24T06:19:28.038Z,-7.18
2018-02-24T06:21:57.291Z,-7.16
2018-02-24T06:24:25.668Z,-7.13
2018-02-24T06:26:54.188Z,-7.13
2018-02-24T06:29:22.611Z,-7.14
2018-02-24T06:31:52.139Z,-7.14
2018-02-24T06:34:21.918Z,-7.06
2018-02-24T06:36:53.316Z,-7.06
2018-02-24T06:39:21.888Z,-6.91
2018-02-24T06:41:50.446Z,-6.88
2018-02-24T06:44:20.936Z,-6.82
2018-02-24T06:46:49.384Z,-6.94
2018-02-24T06:49:18.095Z,-6.85
2018-02-24T06:51:46.541Z,-6.75
2018-02-24T06:54:15.730Z,-6.81
2018-02-24T06:56:57.975Z,-6.80
2018-02-24T06:59:27.329Z,-6.78
2018-02-24T07:01:56.542Z,-6.68
2018-02-24T07:04:26.040Z,-6.59
2018-02-24T07:06:55.195Z,-6.53
2018-02-24T07:09:23.584Z,-6.38
2018-02-24T07:11:52.036Z,-6.34
2018-02-24T07:14:20.442Z,-6.23
2018-02-24T07:16:48.846Z,-6.21
2018-02-24T07:19:17.278Z,-6.07
2018-02-24T07:21:45.670Z,-5.80
2018-02-24T07:24:14.111Z,-5.48
2018-02-24T07:26:42.474Z,-4.98
2018-02-24T07:29:12.668Z,-4.75
2018-02-24T07:31:41.159Z,-4.77
2018-02-24T07:34:09.556Z,-4.67
2018-02-24T07:36:38.219Z,-4.27
2018-02-24T07:39:06.606Z,-4.37
2018-02-24T07:41:35.003Z,-4.42
2018-02-24T07:44:03.440Z,-4.37
2018-02-24T07:46:31.884Z,-4.31
2018-02-24T07:49:01.075Z,-4.08
2018-02-24T07:51:30.284Z,-3.77
2018-02-24T07:53:59.834Z,-3.56
2018-02-24T07:56:28.258Z,-3.53
2018-02-24T07:58:56.659Z,-3.25
2018-02-24T08:01:25.839Z,-3.10
2018-02-24T08:03:54.279Z,-3.03
2018-02-24T08:06:22.675Z,-2.90
2018-02-24T08:08:51.059Z,-2.47
2018-02-24T08:11:20.403Z,-2.31
2018-02-24T08:13:48.807Z,-2.06
2018-02-24T08:16:17.979Z,-1.87
2018-02-24T08:18:46.420Z,-1.65
2018-02-24T08:21:14.811Z,-1.22
2018-02-24T08:23:43.240Z,-1.20
2018-02-24T08:26:12.412Z,-0.75
2018-02-24T08:28:40.837Z,-0.42
2018-02-24T08:31:09.236Z,-0.27
2018-02-24T08:33:37.826Z,-0.01
2018-02-24T08:36:06.252Z,-0.04
2018-02-24T08:38:35.448Z,0.19
2018-02-24T08:41:03.884Z,0.21
2018-02-24T08:43:32.310Z,0.44
2018-02-24T08:46:00.748Z,0.53
2018-02-24T08:48:29.154Z,0.78
2018-02-24T08:50:57.524Z,0.80
2018-02-24T08:53:25.959Z,1.00
2018-02-24T08:55:54.459Z,1.02
2018-02-24T08:58:22.851Z,1.14
2018-02-24T09:00:51.276Z,1.29
2018-02-24T09:03:20.474Z,1.44
2018-02-24T09:05:49.285Z,1.51
2018-02-24T09:08:17.786Z,1.92
2018-02-24T09:10:46.425Z,2.30
2018-02-24T09:13:14.818Z,2.34
2018-02-24T09:15:43.979Z,2.62
2018-02-24T09:18:12.391Z,2.78
2018-02-24T09:20:41.580Z,3.22
2018-02-24T09:23:09.999Z,3.69
2018-02-24T09:25:38.413Z,3.82
2018-02-24T09:28:17.764Z,4.02
2018-02-24T09:30:46.329Z,4.60
2018-02-24T09:33:14.970Z,5.62
2018-02-24T09:35:44.875Z,6.83
2018-02-24T09:38:14.093Z,6.68
2018-02-24T09:41:02.037Z,6.78
2018-02-24T09:43:30.535Z,6.21
2018-02-24T09:45:58.903Z,7.07
2018-02-24T09:48:27.295Z,7.41
2018-02-24T09:50:55.895Z,7.51
2018-02-24T09:53:24.296Z,7.11
2018-02-24T09:55:52.735Z,6.94
2018-02-24T09:58:21.814Z,6.59
2018-02-24T10:00:50.980Z,7.13
2018-02-24T10:03:19.407Z,6.99
2018-02-24T10:05:47.783Z,6.56
2018-02-24T10:08:16.200Z,7.12
2018-02-24T10:10:44.675Z,6.88
2018-02-24T10:13:14.160Z,7.32
2018-02-24T10:15:42.563Z,7.21
2018-02-24T10:18:11.072Z,7.35
2018-02-24T10:20:39.625Z,7.44
2018-02-24T10:23:08.412Z,7.18
2018-02-24T10:25:36.871Z,7.98
2018-02-24T10:28:06.061Z,8.44
2018-02-24T10:30:34.558Z,8.12
2018-02-24T10:33:03.117Z,7.64
2018-02-24T10:35:45.757Z,7.60
2018-02-24T10:38:14.320Z,7.88
2018-02-24T10:40:45.514Z,8.90
2018-02-24T10:43:13.898Z,8.83
2018-02-24T10:45:42.317Z,8.83
2018-02-24T10:48:11.488Z,8.07
2018-02-24T10:50:40.064Z,7.39
2018-02-24T10:53:08.483Z,6.97
2018-02-24T10:55:36.977Z,7.09
2018-02-24T10:58:05.564Z,7.17
2018-02-24T11:00:33.967Z,7.73
2018-02-24T11:03:03.172Z,8.26
2018-02-24T11:05:31.636Z,7.78
2018-02-24T11:08:01.011Z,7.22
2018-02-24T11:10:29.421Z,7.66
2018-02-24T11:12:58.689Z,7.19
2018-02-24T11:15:28.050Z,7.59
2018-02-24T11:17:56.448Z,7.54
2018-02-24T11:20:24.883Z,7.90
2018-02-24T11:22:53.294Z,8.89
2018-02-24T11:25:21.768Z,8.54
2018-02-24T11:27:50.926Z,8.11
2018-02-24T11:30:19.316Z,8.19
2018-02-24T11:32:47.717Z,8.28
2018-02-24T11:35:16.102Z,7.83
2018-02-24T11:37:44.480Z,7.83
2018-02-24T11:40:13.151Z,7.63
2018-02-24T11:42:41.797Z,8.16
2018-02-24T11:45:10.270Z,7.75
2018-02-24T11:47:39.600Z,7.48
2018-02-24T11:50:08.253Z,7.67
2018-02-24T11:52:36.753Z,7.69
2018-02-24T11:55:05.912Z,7.58
2018-02-24T11:57:35.049Z,7.08
2018-02-24T12:00:04.215Z,7.04
2018-02-24T12:02:32.614Z,6.85
2018-02-24T12:05:01.935Z,6.86
2018-02-24T12:07:31.384Z,7.26
2018-02-24T12:09:59.805Z,7.40
2018-02-24T12:12:29.014Z,7.47
2018-02-24T12:14:57.655Z,7.82
2018-02-24T12:17:26.136Z,7.79
2018-02-24T12:19:54.860Z,7.49
2018-02-24T12:22:27.069Z,7.59
2018-02-24T12:24:55.946Z,6.93
2018-02-24T12:27:27.652Z,7.13
2018-02-24T12:29:56.103Z,7.46
2018-02-24T12:32:24.585Z,6.86
2018-02-24T12:34:53.167Z,6.77
2018-02-24T12:37:21.584Z,6.89
2018-02-24T12:39:50.012Z,7.14
2018-02-24T12:42:19.198Z,7.17
2018-02-24T12:44:48.395Z,7.16
2018-02-24T12:47:17.325Z,7.16
2018-02-24T12:49:45.879Z,7.51
2018-02-24T12:52:15.061Z,7.33
2018-02-24T12:54:43.518Z,7.17
2018-02-24T12:57:11.930Z,7.06
2018-02-24T12:59:40.404Z,7.32
2018-02-24T13:02:08.783Z,7.88
2018-02-24T13:04:38.118Z,7.94
2018-02-24T13:07:07.489Z,7.69
2018-02-24T13:09:35.947Z,7.63
2018-02-24T13:12:04.486Z,7.33
2018-02-24T13:14:33.637Z,7.06
2018-02-24T13:17:02.064Z,7.26
2018-02-24T13:19:31.374Z,7.47
2018-02-24T13:22:00.782Z,7.87
2018-02-24T13:24:29.207Z,7.20
2018-02-24T13:26:58.003Z,7.34
2018-02-24T13:29:26.456Z,7.33
2018-02-24T13:31:54.842Z,7.35
2018-02-24T13:34:23.247Z,7.18
2018-02-24T13:36:52.047Z,7.41
2018-02-24T13:39:20.632Z,7.28
2018-02-24T13:41:49.022Z,7.13
2018-02-24T13:44:17.465Z,7.08
2018-02-24T13:46:45.896Z,6.64
2018-02-24T13:49:14.291Z,6.56
2018-02-24T13:51:42.733Z,6.61
2018-02-24T13:54:11.156Z,6.73
2018-02-24T13:56:39.573Z,6.73
2018-02-24T13:59:07.983Z,7.15
2018-02-24T14:01:36.425Z,6.88
2018-02-24T14:04:05.681Z,7.28
2018-02-24T14:06:34.106Z,7.09
2018-02-24T14:09:03.320Z,6.55
2018-02-24T14:11:33.259Z,6.73
2018-02-24T14:14:01.661Z,6.94
2018-02-24T14:16:30.056Z,6.91
2018-02-24T14:18:58.464Z,6.91
2018-02-24T14:21:27.819Z,6.45
2018-02-24T14:23:56.208Z,6.19
2018-02-24T14:26:24.660Z,5.96
2018-02-24T14:28:53.154Z,5.97
2018-02-24T14:31:21.778Z,6.36
2018-02-24T14:33:50.482Z,6.28
2018-02-24T14:36:18.887Z,5.96
2018-02-24T14:38:48.439Z,5.55
2018-02-24T14:41:16.847Z,5.30
2018-02-24T14:43:45.366Z,5.69
2018-02-24T14:46:14.184Z,5.93
2018-02-24T14:48:44.576Z,5.34
2018-02-24T14:51:13.771Z,5.48
2018-02-24T14:53:43.050Z,5.55
2018-02-24T14:56:12.340Z,5.13
2018-02-24T14:58:40.742Z,4.96
2018-02-24T15:01:09.120Z,4.84
2018-02-24T15:03:37.507Z,4.98
2018-02-24T15:06:06.043Z,4.89
2018-02-24T15:08:34.477Z,4.93
2018-02-24T15:11:03.803Z,4.93
2018-02-24T15:13:32.959Z,4.85
2018-02-24T15:16:01.420Z,4.57
2018-02-24T15:18:29.839Z,4.52
2018-02-24T15:20:58.392Z,4.49
2018-02-24T15:23:27.610Z,4.35
2018-02-24T15:25:56.021Z,4.22
2018-02-24T15:28:25.290Z,4.29
2018-02-24T15:30:53.714Z,4.24
2018-02-24T15:33:22.850Z,4.20
2018-02-24T15:35:51.333Z,4.10
2018-02-24T15:38:19.715Z,3.93
2018-02-24T15:40:48.287Z,3.83
2018-02-24T15:43:16.696Z,3.57
2018-02-24T15:45:45.246Z,3.51
2018-02-24T15:48:13.632Z,3.58
2018-02-24T15:50:42.098Z,3.48
2018-02-24T15:53:10.750Z,3.39
2018-02-24T15:55:39.199Z,3.38
2018-02-24T15:58:07.606Z,3.36
2018-02-24T16:00:36.150Z,3.26
2018-02-24T16:03:04.700Z,3.15
2018-02-24T16:08:26.810Z,3.00
2018-02-24T16:10:55.582Z,2.87
2018-02-24T16:13:24.183Z,2.79
2018-02-24T16:15:52.746Z,2.73
2018-02-24T16:18:24.435Z,2.66
2018-02-24T16:20:53.102Z,2.64
2018-02-24T16:23:21.611Z,2.54
2018-02-24T16:25:50.040Z,2.47
2018-02-24T16:28:18.636Z,2.36
2018-02-24T16:30:47.376Z,2.34
2018-02-24T16:33:16.545Z,2.13
2018-02-24T16:35:44.981Z,2.08
2018-02-24T16:38:13.518Z,1.95
2018-02-24T16:40:41.934Z,1.91
2018-02-24T16:43:10.520Z,1.89
2018-02-24T16:45:38.943Z,1.80
2018-02-24T16:48:07.468Z,1.76
2018-02-24T16:50:35.870Z,1.71
2018-02-24T16:53:04.306Z,1.70
2018-02-24T16:55:32.865Z,1.63
2018-02-24T16:58:01.271Z,1.56
2018-02-24T17:00:30.691Z,1.52
2018-02-24T17:02:59.979Z,1.49
2018-02-24T17:05:29.209Z,1.43
2018-02-24T17:07:57.587Z,1.40
2018-02-24T17:10:26.107Z,1.44
2018-02-24T17:12:54.516Z,1.45
2018-02-24T17:15:24.512Z,1.39
2018-02-24T17:17:52.901Z,1.44
2018-02-24T17:20:21.287Z,1.35
2018-02-24T17:22:50.563Z,1.29
2018-02-24T17:25:18.982Z,1.30
2018-02-24T17:27:48.140Z,1.32
2018-02-24T17:30:16.573Z,1.29
2018-02-24T17:32:45.762Z,1.13
2018-02-24T17:35:17.243Z,1.17
2018-02-24T17:37:45.719Z,1.08
2018-02-24T17:40:14.183Z,1.04
2018-02-24T17:42:43.381Z,0.97
2018-02-24T17:45:12.704Z,0.92
2018-02-24T17:47:41.087Z,0.94
2018-02-24T17:50:09.476Z,0.87
2018-02-24T17:52:37.979Z,0.69
2018-02-24T17:55:06.492Z,0.80
2018-02-24T17:57:34.903Z,0.73
2018-02-24T18:00:04.023Z,0.69
2018-02-24T18:02:32.432Z,0.67
2018-02-24T18:05:00.820Z,0.60
2018-02-24T18:07:29.238Z,0.58
2018-02-24T18:09:58.527Z,0.50
2018-02-24T18:12:27.779Z,0.44
2018-02-24T18:15:03.723Z,0.45
2018-02-24T18:17:32.532Z,0.24
2018-02-24T18:20:01.165Z,0.34
2018-02-24T18:22:31.016Z,0.14
2018-02-24T18:24:59.456Z,0.15
2018-02-24T18:27:28.811Z,0.00
2018-02-24T18:29:58.406Z,0.03
2018-02-24T18:32:26.901Z,-0.12
2018-02-24T18:34:55.497Z,0.18
2018-02-24T18:37:24.057Z,0.13
2018-02-24T18:39:52.623Z,0.19
2018-02-24T18:42:21.287Z,0.10
2018-02-24T18:44:50.479Z,0.05
2018-02-24T18:47:18.987Z,-0.05
2018-02-24T18:49:48.166Z,-0.17
2018-02-24T18:52:17.411Z,-0.29
2018-02-24T18:54:47.563Z,-0.20
2018-02-24T18:57:15.970Z,-0.29
2018-02-24T18:59:45.250Z,-0.22
2018-02-24T19:02:13.656Z,-0.10
2018-02-24T19:04:42.808Z,-0.20
2018-02-24T19:07:11.240Z,-0.10
2018-02-24T19:09:40.474Z,-0.07
2018-02-24T19:12:08.893Z,-0.10
2018-02-24T19:14:37.436Z,-0.14
2018-02-24T19:17:06.585Z,-0.14
2018-02-24T19:19:35.033Z,-0.09
2018-02-24T19:22:03.861Z,-0.08
2018-02-24T19:24:33.067Z,-0.16
2018-02-24T19:27:03.006Z,-0.21
2018-02-24T19:29:31.433Z,-0.30
2018-02-24T19:32:00.032Z,-0.21
2018-02-24T19:34:28.701Z,-0.33
2018-02-24T19:36:57.155Z,-0.31
2018-02-24T19:39:25.935Z,-0.37
2018-02-24T19:41:54.524Z,-0.37
2018-02-24T19:44:22.905Z,-0.45
2018-02-24T19:46:51.323Z,-0.47
2018-02-24T19:49:19.997Z,-0.46
2018-02-24T19:51:48.406Z,-0.38
2018-02-24T19:54:16.792Z,-0.39
2018-02-24T19:56:45.250Z,-0.41
2018-02-24T19:59:13.756Z,-0.45
2018-02-24T20:01:42.968Z,-0.39
2018-02-24T20:04:12.144Z,-0.25
2018-02-24T20:06:40.612Z,-0.26
2018-02-24T20:09:09.028Z,-0.33
2018-02-24T20:11:37.458Z,-0.44
2018-02-24T20:14:06.622Z,-0.28
2018-02-24T20:16:35.015Z,-0.41
2018-02-24T20:19:03.443Z,-0.40
2018-02-24T20:21:31.891Z,-0.40
2018-02-24T20:24:00.441Z,-0.38
2018-02-24T20:26:28.869Z,-0.70
2018-02-24T20:28:57.308Z,-0.71
2018-02-24T20:31:25.874Z,-0.65
2018-02-24T20:33:55.101Z,-0.53
2018-02-24T20:36:23.497Z,-0.39
2018-02-24T20:38:51.911Z,-0.35
2018-02-24T20:41:20.376Z,-0.33
2018-02-24T20:43:48.821Z,-0.29
2018-02-24T20:46:17.279Z,-0.17
2018-02-24T20:48:46.663Z,-0.14
2018-02-24T20:51:15.083Z,-0.22
2018-02-24T20:53:43.575Z,-0.23
2018-02-24T20:56:11.987Z,-0.30
2018-02-24T20:58:40.424Z,-0.25
2018-02-24T21:01:08.829Z,-0.23
2018-02-24T21:03:37.262Z,-0.20
2018-02-24T21:06:06.160Z,-0.22
2018-02-24T21:08:34.672Z,-0.26
2018-02-24T21:11:03.158Z,-0.31
2018-02-24T21:13:31.575Z,-0.29
2018-02-24T21:16:00.138Z,-0.32
2018-02-24T21:18:28.722Z,-0.33
2018-02-24T21:20:57.940Z,-0.38
2018-02-24T21:23:27.712Z,-0.38
2018-02-24T21:25:56.114Z,-0.44
2018-02-24T21:28:25.294Z,-0.41
2018-02-24T21:30:55.201Z,-0.51
2018-02-24T21:36:18.591Z,-0.56
2018-02-24T21:38:57.265Z,-0.56
2018-02-24T21:41:25.744Z,-0.62
2018-02-24T21:43:54.289Z,-0.62
2018-02-24T21:46:23.453Z,-0.58
2018-02-24T21:48:51.855Z,-0.61
2018-02-24T21:51:23.117Z,-0.58
2018-02-24T21:53:53.752Z,-0.76
2018-02-24T21:56:22.206Z,-0.78
2018-02-24T21:58:50.657Z,-0.71
2018-02-24T22:01:19.053Z,-0.74
2018-02-24T22:03:47.793Z,-0.71
2018-02-24T22:06:22.202Z,-0.69
2018-02-24T22:08:54.937Z,-0.72
2018-02-24T22:11:23.419Z,-0.76
2018-02-24T22:14:03.121Z,-0.78
2018-02-24T22:16:31.588Z,-0.75
2018-02-24T22:19:00.759Z,-0.78
2018-02-24T22:21:29.126Z,-0.85
2018-02-24T22:23:57.640Z,-0.82
2018-02-24T22:26:26.235Z,-0.84
2018-02-24T22:28:55.483Z,-0.86
2018-02-24T22:31:23.855Z,-0.92
2018-02-24T22:33:52.274Z,-0.90
2018-02-24T22:36:20.764Z,-0.94
2018-02-24T22:38:49.173Z,-0.97
2018-02-24T22:41:17.916Z,-0.99
2018-02-24T22:43:46.328Z,-1.00
2018-02-24T22:46:15.524Z,-1.00
2018-02-24T22:48:50.031Z,-1.05
2018-02-24T22:51:18.470Z,-1.03
2018-02-24T22:53:46.868Z,-1.11
2018-02-24T22:56:15.373Z,-1.08
2018-02-24T22:58:44.647Z,-1.06
2018-02-24T23:01:13.216Z,-1.06
2018-02-24T23:03:41.615Z,-1.08
2018-02-24T23:06:10.054Z,-1.00
2018-02-24T23:08:38.426Z,-1.06
2018-02-24T23:11:06.825Z,-1.10
2018-02-24T23:13:35.235Z,-1.08
2018-02-24T23:16:03.626Z,-1.15
2018-02-24T23:18:32.056Z,-1.18
2018-02-24T23:21:00.448Z,-1.23
2018-02-24T23:23:28.838Z,-1.20
2018-02-24T23:25:57.197Z,-1.29
2018-02-24T23:28:25.574Z,-1.34
2018-02-24T23:30:54.283Z,-1.44
2018-02-24T23:33:22.738Z,-1.36
2018-02-24T23:35:51.254Z,-1.34
2018-02-24T23:38:19.706Z,-1.42
2018-02-24T23:40:48.225Z,-1.40
2018-02-24T23:43:16.612Z,-1.43
2018-02-24T23:45:45.006Z,-1.46
2018-02-24T23:48:13.402Z,-1.52
2018-02-24T23:50:42.582Z,-1.53
2018-02-24T23:53:10.972Z,-1.51
2018-02-24T23:55:40.152Z,-1.51
2018-02-24T23:58:08.699Z,-1.66
